createdAt,value
2022-09-26T00:01:42.767Z,82.21
2022-09-26T00:04:26.011Z,82.34
2022-09-26T00:06:57.395Z,83.19
2022-09-26T00:09:28.122Z,83.82
2022-09-26T00:11:56.792Z,84.25
2022-09-26T00:14:29.747Z,84.55
2022-09-26T00:16:57.941Z,85.01
2022-09-26T00:19:28.991Z,84.62
2022-09-26T00:21:57.058Z,84.97
2022-09-26T00:24:25.277Z,84.82
2022-09-26T00:26:54.461Z,85.17
2022-09-26T00:29:22.642Z,85.47
2022-09-26T00:31:50.718Z,85.27
2022-09-26T00:34:20.437Z,85.22
2022-09-26T00:36:50.030Z,85.46
2022-09-26T00:39:18.676Z,85.53
2022-09-26T00:41:47.027Z,85.87
2022-09-26T00:44:50.238Z,86.60
2022-09-26T00:47:41.906Z,86.78
2022-09-26T00:50:14.339Z,86.66
2022-09-26T00:52:53.898Z,86.58
2022-09-26T00:55:30.470Z,86.52
2022-09-26T00:58:07.888Z,86.01
2022-09-26T01:05:36.130Z,85.98
2022-09-26T01:08:05.865Z,86.12
2022-09-26T01:10:36.589Z,86.22
2022-09-26T01:13:06.874Z,86.03
2022-09-26T01:15:36.748Z,85.70
2022-09-26T01:18:07.764Z,85.73
2022-09-26T01:20:54.250Z,85.79
2022-09-26T01:23:37.944Z,86.34
2022-09-26T01:26:43.535Z,86.96
2022-09-26T01:29:26.901Z,87.10
2022-09-26T01:32:27.201Z,87.32
2022-09-26T01:35:17.837Z,87.32
2022-09-26T01:38:13.851Z,87.44
2022-09-26T01:40:53.756Z,87.59
2022-09-26T01:43:34.383Z,87.34
2022-09-26T01:46:33.279Z,87.04
2022-09-26T01:49:27.344Z,87.05
2022-09-26T01:52:11.654Z,87.03
2022-09-26T01:54:54.523Z,86.99
2022-09-26T01:57:34.285Z,86.87
2022-09-26T02:00:07.728Z,86.65
2022-09-26T02:02:46.690Z,86.61
2022-09-26T02:05:23.673Z,86.66
2022-09-26T02:08:18.389Z,86.88
2022-09-26T02:10:50.685Z,87.00
2022-09-26T02:13:26.293Z,87.17
2022-09-26T02:15:59.521Z,87.09
2022-09-26T02:18:37.806Z,87.21
2022-09-26T02:21:18.002Z,87.20
2022-09-26T02:23:51.098Z,87.22
2022-09-26T02:26:19.667Z,87.15
2022-09-26T02:28:48.449Z,87.33
2022-09-26T02:31:22.881Z,87.23
2022-09-26T02:33:53.688Z,87.15
2022-09-26T02:36:23.530Z,86.89
2022-09-26T02:38:51.739Z,86.43
2022-09-26T02:41:56.147Z,86.43
2022-09-26T02:44:30.417Z,86.15
2022-09-26T02:47:29.963Z,85.72
2022-09-26T02:50:08.423Z,85.39
2022-09-26T02:52:52.763Z,85.53
2022-09-26T02:55:45.808Z,85.64
2022-09-26T02:58:36.439Z,85.51
2022-09-26T03:01:14.898Z,85.41
2022-09-26T03:03:52.258Z,85.35
2022-09-26T03:06:26.855Z,85.49
2022-09-26T03:08:57.008Z,85.86
2022-09-26T03:11:28.973Z,85.89
2022-09-26T03:13:59.895Z,85.95
2022-09-26T03:16:34.233Z,86.11
2022-09-26T03:19:17.454Z,86.11
2022-09-26T03:21:45.759Z,85.70
2022-09-26T03:24:14.436Z,85.76
2022-09-26T03:26:43.277Z,85.81
2022-09-26T03:29:11.800Z,86.27
2022-09-26T03:31:40.736Z,86.62
2022-09-26T03:34:11.179Z,86.59
2022-09-26T03:36:39.904Z,86.73
2022-09-26T03:39:09.900Z,86.81
2022-09-26T03:41:45.037Z,86.50
2022-09-26T03:44:26.045Z,86.40
2022-09-26T03:47:03.764Z,85.95
2022-09-26T03:49:33.263Z,85.97
2022-09-26T03:52:01.636Z,85.94
2022-09-26T03:54:30.364Z,86.10
2022-09-26T03:56:58.920Z,85.86
2022-09-26T03:59:28.334Z,85.71
2022-09-26T04:01:56.653Z,85.62
2022-09-26T04:04:26.003Z,85.70
2022-09-26T04:06:54.781Z,85.84
2022-09-26T04:09:24.407Z,85.82
2022-09-26T04:11:53.741Z,85.66
2022-09-26T04:14:22.236Z,85.91
2022-09-26T04:16:55.004Z,86.03
2022-09-26T04:19:26.807Z,86.01
2022-09-26T04:21:55.416Z,86.02
2022-09-26T04:24:23.705Z,86.20
2022-09-26T04:26:51.882Z,86.11
2022-09-26T04:29:20.632Z,85.79
2022-09-26T04:32:09.146Z,86.09
2022-09-26T04:34:49.937Z,86.11
2022-09-26T04:37:21.147Z,85.84
2022-09-26T04:39:49.195Z,85.67
2022-09-26T04:42:18.128Z,85.83
2022-09-26T04:44:46.797Z,85.77
2022-09-26T04:47:14.884Z,86.03
2022-09-26T04:50:03.077Z,86.23
2022-09-26T04:52:32.046Z,86.69
2022-09-26T04:55:00.155Z,87.03
2022-09-26T04:57:28.693Z,86.78
2022-09-26T04:59:57.364Z,86.38
2022-09-26T05:02:26.706Z,86.27
2022-09-26T05:04:55.403Z,86.20
2022-09-26T05:07:23.637Z,86.50
2022-09-26T05:09:53.196Z,86.95
2022-09-26T05:12:22.990Z,87.14
2022-09-26T05:14:54.106Z,87.22
2022-09-26T05:17:24.196Z,87.37
2022-09-26T05:19:52.997Z,87.12
2022-09-26T05:22:31.613Z,86.97
2022-09-26T05:25:18.734Z,86.53
2022-09-26T05:27:46.920Z,86.35
2022-09-26T05:30:15.456Z,86.64
2022-09-26T05:32:48.650Z,87.21
2022-09-26T05:35:17.997Z,87.47
2022-09-26T05:37:46.362Z,87.58
2022-09-26T05:40:33.212Z,87.58
2022-09-26T05:43:02.707Z,87.66
2022-09-26T05:45:33.593Z,87.37
2022-09-26T05:48:05.202Z,87.36
2022-09-26T05:50:34.501Z,87.45
2022-09-26T05:53:03.030Z,87.85
2022-09-26T05:55:31.759Z,87.99
2022-09-26T05:58:19.072Z,87.88
2022-09-26T06:01:08.895Z,87.60
2022-09-26T06:03:37.745Z,87.47
2022-09-26T06:06:18.060Z,87.67
2022-09-26T06:08:47.988Z,87.95
2022-09-26T06:11:32.354Z,88.36
2022-09-26T06:14:01.357Z,88.18
2022-09-26T06:16:30.015Z,88.12
2022-09-26T06:19:05.286Z,88.23
2022-09-26T06:21:34.635Z,88.12
2022-09-26T06:24:07.310Z,88.00
2022-09-26T06:26:37.776Z,87.96
2022-09-26T06:29:07.673Z,88.14
2022-09-26T06:31:38.307Z,88.54
2022-09-26T06:34:14.962Z,88.89
2022-09-26T06:37:09.416Z,88.98
2022-09-26T06:39:40.705Z,88.98
2022-09-26T06:42:09.118Z,89.00
2022-09-26T06:44:51.358Z,89.02
2022-09-26T06:47:25.616Z,89.06
2022-09-26T06:50:15.390Z,89.27
2022-09-26T06:52:50.310Z,89.07
2022-09-26T06:55:19.437Z,89.06
2022-09-26T06:57:47.589Z,89.07
2022-09-26T07:00:16.528Z,88.88
2022-09-26T07:03:08.549Z,88.58
2022-09-26T07:06:00.053Z,88.78
2022-09-26T07:09:00.538Z,88.78
2022-09-26T07:11:38.289Z,89.03
2022-09-26T07:14:18.471Z,88.90
2022-09-26T07:16:53.874Z,89.03
2022-09-26T07:19:40.702Z,88.93
2022-09-26T07:22:15.498Z,89.00
2022-09-26T07:24:51.896Z,88.90
2022-09-26T07:27:20.147Z,89.08
2022-09-26T07:29:48.918Z,89.02
2022-09-26T07:32:19.411Z,89.21
2022-09-26T07:35:16.115Z,89.26
2022-09-26T07:37:44.914Z,89.07
2022-09-26T07:40:13.157Z,89.19
2022-09-26T07:42:42.082Z,89.03
2022-09-26T07:45:27.863Z,88.82
2022-09-26T07:48:18.303Z,88.80
2022-09-26T07:51:09.308Z,88.11
2022-09-26T07:53:45.048Z,87.76
2022-09-26T07:56:36.841Z,87.63
2022-09-26T07:59:23.531Z,87.34
2022-09-26T08:02:26.454Z,87.27
2022-09-26T08:05:00.759Z,87.16
2022-09-26T08:07:31.381Z,87.16
2022-09-26T08:10:20.208Z,87.02
2022-09-26T08:13:08.823Z,87.24
2022-09-26T08:16:04.289Z,87.40
2022-09-26T08:18:34.086Z,87.26
2022-09-26T08:21:06.817Z,87.31
2022-09-26T08:23:35.575Z,87.06
2022-09-26T08:26:44.939Z,86.78
2022-09-26T08:29:24.083Z,86.60
2022-09-26T08:31:54.865Z,86.26
2022-09-26T08:34:25.489Z,86.02
2022-09-26T08:37:17.239Z,85.86
2022-09-26T08:40:11.714Z,85.93
2022-09-26T08:43:30.115Z,86.17
2022-09-26T08:47:01.557Z,85.79
2022-09-26T08:49:48.633Z,85.95
2022-09-26T08:52:57.005Z,86.19
2022-09-26T08:55:40.116Z,86.03
2022-09-26T08:58:28.442Z,86.13
2022-09-26T09:01:04.644Z,85.73
2022-09-26T09:04:28.101Z,85.21
2022-09-26T09:07:06.555Z,84.58
2022-09-26T09:09:35.151Z,84.43
2022-09-26T09:12:40.637Z,84.10
2022-09-26T09:15:45.867Z,84.07
2022-09-26T09:18:29.364Z,83.15
2022-09-26T09:21:23.815Z,82.95
2022-09-26T09:24:33.463Z,82.77
2022-09-26T09:30:21.762Z,82.38
2022-09-26T09:33:11.959Z,82.03
2022-09-26T09:36:07.533Z,81.76
2022-09-26T09:39:09.063Z,81.66
2022-09-26T09:42:00.498Z,81.47
2022-09-26T09:44:35.157Z,81.59
2022-09-26T09:47:13.654Z,81.87
2022-09-26T09:49:48.424Z,81.84
2022-09-26T09:52:25.896Z,81.30
2022-09-26T09:55:04.982Z,80.84
2022-09-26T09:58:07.380Z,79.93
2022-09-26T10:00:53.964Z,80.05
2022-09-26T10:03:28.112Z,80.53
2022-09-26T10:06:01.721Z,80.79
2022-09-26T10:08:40.659Z,79.76
2022-09-26T10:11:42.079Z,79.41
2022-09-26T10:14:48.075Z,79.16
2022-09-26T10:18:24.209Z,77.85
2022-09-26T10:21:21.087Z,76.82
2022-09-26T10:23:50.858Z,76.46
2022-09-26T10:26:40.407Z,76.13
2022-09-26T10:29:29.107Z,75.38
2022-09-26T10:32:01.817Z,75.44
2022-09-26T10:34:33.398Z,75.68
2022-09-26T10:37:29.552Z,75.42
2022-09-26T10:40:40.839Z,75.82
2022-09-26T10:43:25.284Z,75.74
2022-09-26T10:46:02.176Z,75.11
2022-09-26T10:48:54.141Z,74.84
2022-09-26T10:51:45.511Z,74.96
2022-09-26T10:54:19.740Z,74.73
2022-09-26T10:56:58.121Z,73.82
2022-09-26T10:59:34.913Z,73.43
2022-09-26T11:02:04.098Z,72.87
2022-09-26T11:05:04.674Z,73.23
2022-09-26T11:08:05.609Z,73.60
2022-09-26T11:11:00.279Z,73.88
2022-09-26T11:13:50.164Z,73.53
2022-09-26T11:16:21.442Z,72.76
2022-09-26T11:19:06.703Z,72.41
2022-09-26T11:22:19.481Z,71.66
2022-09-26T11:25:06.378Z,70.88
2022-09-26T11:28:33.476Z,71.55
2022-09-26T11:31:28.843Z,71.51
2022-09-26T11:34:29.032Z,71.52
2022-09-26T11:37:30.828Z,71.53
2022-09-26T11:40:43.661Z,71.48
2022-09-26T11:43:36.267Z,70.94
2022-09-26T11:46:47.545Z,71.08
2022-09-26T11:49:44.604Z,71.36
2022-09-26T11:52:49.007Z,71.56
2022-09-26T11:55:20.390Z,71.62
2022-09-26T11:58:03.392Z,71.21
2022-09-26T12:00:59.100Z,71.25
2022-09-26T12:03:33.729Z,71.73
2022-09-26T12:06:35.132Z,71.85
2022-09-26T12:09:27.691Z,72.05
2022-09-26T12:12:18.113Z,72.29
2022-09-26T12:15:02.978Z,72.55
2022-09-26T12:17:41.021Z,72.84
2022-09-26T12:20:46.956Z,73.10
2022-09-26T12:23:31.084Z,73.09
2022-09-26T12:26:30.523Z,73.53
2022-09-26T12:29:23.649Z,73.88
2022-09-26T12:32:06.427Z,74.06
2022-09-26T12:34:55.345Z,74.54
2022-09-26T12:37:53.009Z,75.09
2022-09-26T12:40:31.652Z,75.37
2022-09-26T12:43:21.939Z,75.84
2022-09-26T12:46:02.121Z,76.47
2022-09-26T12:49:02.572Z,76.86
2022-09-26T12:51:52.226Z,77.04
2022-09-26T12:55:08.789Z,77.85
2022-09-26T12:58:08.314Z,78.09
2022-09-26T13:01:22.548Z,78.04
2022-09-26T13:03:59.782Z,77.25
2022-09-26T13:07:19.067Z,77.19
2022-09-26T13:09:51.588Z,77.99
2022-09-26T13:12:41.667Z,77.96
2022-09-26T13:15:35.598Z,78.25
2022-09-26T13:18:21.941Z,79.21
2022-09-26T13:20:58.001Z,79.81
2022-09-26T13:23:39.265Z,79.77
2022-09-26T13:26:14.939Z,79.11
2022-09-26T13:29:15.824Z,79.66
2022-09-26T13:31:46.273Z,79.21
2022-09-26T13:34:22.515Z,78.67
2022-09-26T13:36:51.692Z,79.06
2022-09-26T13:39:36.502Z,79.73
2022-09-26T13:42:19.218Z,79.86
2022-09-26T13:45:16.907Z,80.02
2022-09-26T13:47:56.143Z,80.83
2022-09-26T13:50:44.249Z,81.30
2022-09-26T13:53:38.037Z,81.13
2022-09-26T13:56:34.285Z,80.99
2022-09-26T13:59:34.392Z,80.31
2022-09-26T14:02:19.513Z,80.46
2022-09-26T14:04:50.205Z,81.41
2022-09-26T14:08:02.982Z,81.48
2022-09-26T14:10:36.900Z,81.84
2022-09-26T14:13:21.967Z,81.80
2022-09-26T14:16:20.927Z,82.11
2022-09-26T14:19:12.718Z,81.79
2022-09-26T14:22:07.716Z,81.84
2022-09-26T14:24:41.583Z,80.93
2022-09-26T14:27:09.620Z,81.00
2022-09-26T14:29:42.590Z,81.12
2022-09-26T14:32:35.426Z,81.00
2022-09-26T14:35:19.611Z,80.81
2022-09-26T14:37:50.547Z,80.50
2022-09-26T14:40:18.758Z,80.66
2022-09-26T14:42:58.151Z,80.77
2022-09-26T14:45:36.495Z,80.86
2022-09-26T14:48:18.679Z,80.66
2022-09-26T14:50:58.587Z,80.58
2022-09-26T14:53:42.135Z,80.48
2022-09-26T14:56:16.181Z,80.45
2022-09-26T14:58:44.362Z,80.68
2022-09-26T15:01:31.402Z,80.61
2022-09-26T15:04:08.673Z,80.55
2022-09-26T15:06:42.616Z,80.58
2022-09-26T15:09:12.840Z,80.58
2022-09-26T15:11:44.561Z,80.53
2022-09-26T15:14:25.009Z,80.50
2022-09-26T15:16:55.823Z,80.88
2022-09-26T15:19:49.951Z,81.04
2022-09-26T15:22:25.265Z,80.85
2022-09-26T15:24:54.950Z,81.08
2022-09-26T15:27:27.399Z,80.99
2022-09-26T15:30:04.138Z,81.08
2022-09-26T15:32:33.619Z,80.67
2022-09-26T15:35:03.404Z,80.26
2022-09-26T15:37:34.939Z,80.28
2022-09-26T15:40:25.303Z,80.16
2022-09-26T15:43:22.775Z,80.38
2022-09-26T15:46:04.697Z,80.47
2022-09-26T15:48:43.056Z,80.93
2022-09-26T15:51:20.888Z,80.99
2022-09-26T15:53:56.484Z,81.22
2022-09-26T15:56:30.902Z,81.49
2022-09-26T15:59:17.273Z,81.62
2022-09-26T16:01:50.197Z,81.85
2022-09-26T16:04:29.239Z,82.02
2022-09-26T16:07:00.523Z,82.21
2022-09-26T16:09:32.570Z,82.28
2022-09-26T16:12:10.489Z,82.26
2022-09-26T16:14:54.928Z,82.44
2022-09-26T16:17:38.107Z,82.43
2022-09-26T16:20:18.585Z,82.59
2022-09-26T16:22:51.599Z,82.58
2022-09-26T16:25:19.911Z,82.94
2022-09-26T16:27:49.578Z,82.81
2022-09-26T16:30:23.972Z,83.07
2022-09-26T16:33:14.951Z,83.11
2022-09-26T16:36:55.857Z,83.17
2022-09-26T16:46:33.849Z,84.07
2022-09-26T16:49:25.653Z,84.29
2022-09-26T16:52:30.542Z,84.55
2022-09-26T16:55:03.703Z,84.62
2022-09-26T16:57:37.454Z,84.81
2022-09-26T17:00:34.950Z,85.04
2022-09-26T17:03:16.927Z,85.06
2022-09-26T17:05:45.523Z,85.24
2022-09-26T17:08:13.840Z,85.47
2022-09-26T17:10:43.476Z,85.40
2022-09-26T17:13:17.932Z,85.15
2022-09-26T17:15:48.631Z,84.63
2022-09-26T17:18:21.569Z,84.59
2022-09-26T17:20:50.378Z,84.56
2022-09-26T17:23:38.688Z,84.36
2022-09-26T17:26:07.866Z,84.19
2022-09-26T17:28:39.869Z,84.53
2022-09-26T17:31:14.911Z,84.43
2022-09-26T17:33:44.149Z,84.64
2022-09-26T17:36:22.302Z,84.29
2022-09-26T17:38:51.012Z,84.35
2022-09-26T17:41:19.343Z,84.09
2022-09-26T17:43:51.064Z,84.00
2022-09-26T17:46:20.340Z,84.28
2022-09-26T17:48:49.065Z,84.26
2022-09-26T17:51:17.923Z,84.46
2022-09-26T17:53:50.824Z,84.82
2022-09-26T17:56:20.149Z,85.34
2022-09-26T17:58:49.452Z,85.81
2022-09-26T18:01:25.929Z,85.57
2022-09-26T18:04:01.048Z,84.73
2022-09-26T18:06:32.017Z,84.40
2022-09-26T18:09:08.591Z,84.89
2022-09-26T18:11:37.393Z,85.08
2022-09-26T18:14:06.891Z,85.50
2022-09-26T18:16:35.379Z,85.46
2022-09-26T18:19:07.504Z,85.24
2022-09-26T18:21:38.791Z,85.11
2022-09-26T18:24:11.906Z,85.19
2022-09-26T18:26:50.934Z,85.12
2022-09-26T18:29:29.326Z,85.22
2022-09-26T18:31:59.173Z,85.40
2022-09-26T18:34:27.768Z,85.21
2022-09-26T18:37:00.682Z,85.20
2022-09-26T18:39:30.554Z,84.92
2022-09-26T18:42:02.658Z,84.84
2022-09-26T18:44:35.118Z,84.67
2022-09-26T18:47:08.136Z,84.65
2022-09-26T18:49:37.955Z,84.65
2022-09-26T18:52:12.137Z,84.72
2022-09-26T18:54:44.024Z,84.72
2022-09-26T18:57:31.740Z,84.81
2022-09-26T19:00:00.737Z,84.76
2022-09-26T19:02:36.001Z,84.97
2022-09-26T19:05:06.335Z,85.11
2022-09-26T19:07:34.540Z,85.14
2022-09-26T19:10:02.700Z,85.24
2022-09-26T19:12:45.815Z,85.13
2022-09-26T19:15:17.740Z,85.20
2022-09-26T19:17:46.056Z,85.07
2022-09-26T19:20:14.185Z,85.03
2022-09-26T19:22:45.399Z,84.67
2022-09-26T19:25:13.871Z,84.70
2022-09-26T19:27:52.157Z,84.77
2022-09-26T19:30:22.104Z,84.82
2022-09-26T19:32:53.384Z,84.80
2022-09-26T19:35:26.203Z,84.85
2022-09-26T19:37:54.501Z,84.91
2022-09-26T19:40:24.687Z,85.19
2022-09-26T19:42:53.246Z,85.18
2022-09-26T19:45:22.162Z,84.97
2022-09-26T19:47:53.065Z,85.12
2022-09-26T19:50:26.240Z,85.13
2022-09-26T19:52:58.562Z,85.19
2022-09-26T19:55:29.666Z,85.26
2022-09-26T19:58:02.972Z,85.06
2022-09-26T20:00:37.171Z,84.97
2022-09-26T20:03:05.418Z,85.08
2022-09-26T20:05:33.684Z,85.06
2022-09-26T20:08:02.393Z,85.37
2022-09-26T20:10:36.300Z,85.27
2022-09-26T20:13:04.727Z,85.51
2022-09-26T20:15:32.994Z,85.68
2022-09-26T20:18:01.540Z,85.62
2022-09-26T20:20:31.649Z,85.85
2022-09-26T20:22:59.813Z,85.91
2022-09-26T20:25:32.997Z,85.95
2022-09-26T20:28:01.257Z,85.98
2022-09-26T20:30:47.863Z,85.95
2022-09-26T20:33:16.125Z,85.86
2022-09-26T20:35:47.768Z,85.81
2022-09-26T20:38:30.968Z,85.81
2022-09-26T20:41:12.688Z,85.94
2022-09-26T20:43:46.951Z,85.89
2022-09-26T20:46:15.481Z,86.22
2022-09-26T20:48:46.973Z,86.26
2022-09-26T20:51:27.500Z,85.94
2022-09-26T20:54:00.524Z,86.02
2022-09-26T20:56:29.425Z,86.37
2022-09-26T20:58:58.009Z,86.47
2022-09-26T21:01:27.904Z,86.57
2022-09-26T21:03:57.325Z,86.61
2022-09-26T21:06:30.461Z,86.55
2022-09-26T21:08:59.148Z,86.46
2022-09-26T21:11:27.523Z,86.42
2022-09-26T21:13:55.645Z,86.55
2022-09-26T21:16:24.028Z,86.40
2022-09-26T21:18:53.049Z,86.68
2022-09-26T21:21:31.671Z,86.38
2022-09-26T21:24:32.689Z,86.39
2022-09-26T21:27:03.262Z,86.04
2022-09-26T21:29:31.774Z,85.87
2022-09-26T21:32:04.554Z,85.77
2022-09-26T21:34:34.002Z,85.58
2022-09-26T21:37:03.845Z,85.33
2022-09-26T21:39:32.374Z,85.51
2022-09-26T21:42:04.421Z,85.75
2022-09-26T21:44:41.614Z,86.08
2022-09-26T21:47:10.448Z,86.19
2022-09-26T21:49:38.512Z,86.38
2022-09-26T21:52:19.929Z,86.67
2022-09-26T21:54:48.184Z,86.83
2022-09-26T21:57:23.917Z,87.11
2022-09-26T21:59:53.597Z,87.06
2022-09-26T22:02:21.950Z,87.14
2022-09-26T22:04:52.583Z,87.31
2022-09-26T22:07:21.343Z,87.44
2022-09-26T22:09:49.355Z,87.63
2022-09-26T22:12:17.730Z,87.44
2022-09-26T22:14:46.106Z,87.44
2022-09-26T22:17:14.225Z,87.83
2022-09-26T22:19:42.456Z,87.97
2022-09-26T22:22:11.053Z,87.87
2022-09-26T22:24:41.356Z,87.89
2022-09-26T22:27:09.614Z,87.90
2022-09-26T22:29:37.928Z,87.82
2022-09-26T22:32:06.391Z,87.89
2022-09-26T22:34:34.796Z,87.71
2022-09-26T22:37:03.132Z,87.68
2022-09-26T22:39:31.413Z,87.53
2022-09-26T22:41:59.573Z,87.66
2022-09-26T22:44:27.799Z,87.68
2022-09-26T22:46:55.891Z,87.69
2022-09-26T22:49:24.321Z,87.65
2022-09-26T22:51:52.668Z,87.79
2022-09-26T22:54:20.762Z,87.69
2022-09-26T22:56:48.858Z,87.48
2022-09-26T22:59:17.077Z,87.54
2022-09-26T23:01:45.163Z,87.62
2022-09-26T23:04:49.133Z,87.68
2022-09-26T23:07:19.299Z,87.80
2022-09-26T23:09:47.594Z,87.65
2022-09-26T23:12:16.173Z,87.73
2022-09-26T23:14:44.990Z,87.80
2022-09-26T23:17:13.911Z,87.27
2022-09-26T23:19:42.322Z,87.78
2022-09-26T23:22:10.610Z,87.95
2022-09-26T23:24:38.852Z,87.87
2022-09-26T23:27:07.546Z,87.75
2022-09-26T23:29:36.807Z,87.80
2022-09-26T23:32:05.472Z,87.76
2022-09-26T23:34:34.050Z,87.59
2022-09-26T23:37:02.275Z,88.18
2022-09-26T23:39:30.522Z,88.14
2022-09-26T23:41:58.949Z,88.10
2022-09-26T23:44:27.704Z,88.26
2022-09-26T23:46:55.763Z,87.99
2022-09-26T23:49:24.015Z,88.03
2022-09-26T23:51:52.681Z,87.89
2022-09-26T23:54:20.771Z,87.96
2022-09-26T23:56:48.974Z,88.00
2022-09-26T23:59:17.344Z,87.82
